createdAt,value
2018-09-15T00:01:12.381Z,15.68
2018-09-15T00:03:42.669Z,15.65
2018-09-15T00:06:15.710Z,15.63
2018-09-15T00:08:45.523Z,15.58
2018-09-15T00:11:16.411Z,15.66
2018-09-15T00:13:48.761Z,15.65
2018-09-15T00:16:18.983Z,15.59
2018-09-15T00:18:49.333Z,15.57
2018-09-15T00:21:21.280Z,15.65
2018-09-15T00:23:51.084Z,15.62
2018-09-15T00:26:21.416Z,15.63
2018-09-15T00:28:52.155Z,15.64
2018-09-15T00:31:21.791Z,15.64
2018-09-15T00:33:54.162Z,15.67
2018-09-15T00:36:24.551Z,15.62
2018-09-15T00:38:54.824Z,15.66
2018-09-15T00:41:24.957Z,15.68
2018-09-15T00:43:56.107Z,15.78
2018-09-15T00:46:26.536Z,15.80
2018-09-15T00:48:56.235Z,15.71
2018-09-15T00:51:26.248Z,15.66
2018-09-15T00:53:56.510Z,15.70
2018-09-15T00:56:27.130Z,15.75
2018-09-15T00:58:57.430Z,15.59
2018-09-15T01:01:32.786Z,15.45
2018-09-15T01:04:04.351Z,15.50
2018-09-15T01:06:34.941Z,15.49
2018-09-15T01:09:05.485Z,15.43
2018-09-15T01:11:35.969Z,15.57
2018-09-15T01:14:08.396Z,15.43
2018-09-15T01:16:39.821Z,15.45
2018-09-15T01:19:10.252Z,15.48
2018-09-15T01:21:40.966Z,15.42
2018-09-15T01:24:12.910Z,15.38
2018-09-15T01:26:44.236Z,15.34
2018-09-15T01:29:14.999Z,15.30
2018-09-15T01:31:46.960Z,15.06
2018-09-15T01:34:17.914Z,15.07
2018-09-15T01:36:49.564Z,15.18
2018-09-15T01:39:20.397Z,15.25
2018-09-15T01:41:51.784Z,15.32
2018-09-15T01:44:22.085Z,15.48
2018-09-15T01:46:52.019Z,15.30
2018-09-15T01:49:23.449Z,15.15
2018-09-15T01:51:53.966Z,15.33
2018-09-15T01:54:24.361Z,15.30
2018-09-15T01:56:54.457Z,15.34
2018-09-15T01:59:24.772Z,15.31
2018-09-15T02:01:55.380Z,15.51
2018-09-15T02:04:26.443Z,15.67
2018-09-15T02:06:56.008Z,15.68
2018-09-15T02:09:26.765Z,15.76
2018-09-15T02:11:56.662Z,15.77
2018-09-15T02:14:26.909Z,15.52
2018-09-15T02:16:59.992Z,15.43
2018-09-15T02:19:30.245Z,15.49
2018-09-15T02:22:00.888Z,15.32
2018-09-15T02:24:31.603Z,15.26
2018-09-15T02:27:01.583Z,15.29
2018-09-15T02:29:31.683Z,15.28
2018-09-15T02:32:02.514Z,15.30
2018-09-15T02:34:32.861Z,15.20
2018-09-15T02:37:04.102Z,15.09
2018-09-15T02:39:35.155Z,15.00
2018-09-15T02:42:05.212Z,14.98
2018-09-15T02:44:35.508Z,14.86
2018-09-15T02:47:06.021Z,14.70
2018-09-15T02:49:35.967Z,14.65
2018-09-15T02:52:06.180Z,14.53
2018-09-15T02:54:36.470Z,14.44
2018-09-15T02:57:06.482Z,14.48
2018-09-15T02:59:36.251Z,14.45
2018-09-15T03:02:07.281Z,14.25
2018-09-15T03:04:37.711Z,14.15
2018-09-15T03:07:07.756Z,14.09
2018-09-15T03:09:38.196Z,14.13
2018-09-15T03:12:08.305Z,14.07
2018-09-15T03:14:38.250Z,14.09
2018-09-15T03:17:09.351Z,14.12
2018-09-15T03:19:39.381Z,14.13
2018-09-15T03:22:11.322Z,14.07
2018-09-15T03:24:42.911Z,13.89
2018-09-15T03:27:14.321Z,13.99
2018-09-15T03:29:47.832Z,14.01
2018-09-15T03:32:18.702Z,14.00
2018-09-15T03:34:49.043Z,14.03
2018-09-15T03:37:19.744Z,14.21
2018-09-15T03:39:49.956Z,14.25
2018-09-15T03:42:22.473Z,14.37
2018-09-15T03:44:53.396Z,14.40
2018-09-15T03:47:23.036Z,14.45
2018-09-15T03:49:54.069Z,14.39
2018-09-15T03:52:24.355Z,14.33
2018-09-15T03:54:55.065Z,14.35
2018-09-15T03:57:26.086Z,14.38
2018-09-15T03:59:55.897Z,14.40
2018-09-15T04:02:26.199Z,14.26
2018-09-15T04:04:56.250Z,14.23
2018-09-15T04:07:26.807Z,14.17
2018-09-15T04:09:56.969Z,14.11
2018-09-15T04:12:26.817Z,14.09
2018-09-15T04:14:58.828Z,14.06
2018-09-15T04:17:29.916Z,13.92
2018-09-15T04:19:59.973Z,13.80
2018-09-15T04:22:30.220Z,13.82
2018-09-15T04:25:00.836Z,13.81
2018-09-15T04:27:31.393Z,13.78
2018-09-15T04:30:02.185Z,13.82
2018-09-15T04:32:33.308Z,13.77
2018-09-15T04:35:03.929Z,13.68
2018-09-15T04:37:34.000Z,13.64
2018-09-15T04:40:04.932Z,13.61
2018-09-15T04:42:35.004Z,13.59
2018-09-15T04:45:04.944Z,13.58
2018-09-15T04:47:35.884Z,13.48
2018-09-15T04:50:08.361Z,13.51
2018-09-15T04:52:38.478Z,13.42
2018-09-15T04:55:10.375Z,13.43
2018-09-15T04:57:40.475Z,13.51
2018-09-15T05:00:10.760Z,13.47
2018-09-15T05:02:41.331Z,13.41
2018-09-15T05:05:11.142Z,13.47
2018-09-15T05:07:41.096Z,13.43
2018-09-15T05:10:11.725Z,13.42
2018-09-15T05:12:42.067Z,13.49
2018-09-15T05:15:12.551Z,13.43
2018-09-15T05:17:43.159Z,13.43
2018-09-15T05:20:13.817Z,13.46
2018-09-15T05:22:44.168Z,13.44
2018-09-15T05:25:14.609Z,13.51
2018-09-15T05:27:44.646Z,13.51
2018-09-15T05:30:14.974Z,13.35
2018-09-15T05:32:45.423Z,13.54
2018-09-15T05:35:15.608Z,13.55
2018-09-15T05:37:45.892Z,13.53
2018-09-15T05:40:16.116Z,13.64
2018-09-15T05:42:48.388Z,13.73
2018-09-15T05:45:19.500Z,13.67
2018-09-15T05:47:49.615Z,13.66
2018-09-15T05:50:19.645Z,13.76
2018-09-15T05:52:50.204Z,13.79
2018-09-15T05:55:20.898Z,13.78
2018-09-15T05:57:51.848Z,13.65
2018-09-15T06:00:23.243Z,13.64
2018-09-15T06:02:55.716Z,13.61
2018-09-15T06:05:26.029Z,13.60
2018-09-15T06:07:56.401Z,13.77
2018-09-15T06:10:29.128Z,13.62
2018-09-15T06:12:59.132Z,13.55
2018-09-15T06:15:28.919Z,13.71
2018-09-15T06:17:59.745Z,13.77
2018-09-15T06:20:30.140Z,13.72
2018-09-15T06:23:02.141Z,13.78
2018-09-15T06:25:32.254Z,13.88
2018-09-15T06:28:03.523Z,14.03
2018-09-15T06:30:38.335Z,14.00
2018-09-15T06:33:09.935Z,14.09
2018-09-15T06:35:41.448Z,14.23
2018-09-15T06:38:16.047Z,14.35
2018-09-15T06:40:50.005Z,14.37
2018-09-15T06:43:25.469Z,14.38
2018-09-15T06:45:58.021Z,14.44
2018-09-15T06:48:32.520Z,14.53
2018-09-15T06:51:05.300Z,14.44
2018-09-15T06:53:37.831Z,14.55
2018-09-15T06:56:10.270Z,14.54
2018-09-15T06:58:40.632Z,14.54
2018-09-15T07:01:11.985Z,14.60
2018-09-15T07:03:41.967Z,14.60
2018-09-15T07:06:13.673Z,14.68
2018-09-15T07:08:44.052Z,14.92
2018-09-15T07:11:15.142Z,14.92
2018-09-15T07:13:45.855Z,15.11
2018-09-15T07:16:17.736Z,15.33
2018-09-15T07:18:51.006Z,15.48
2018-09-15T07:21:21.817Z,15.69
2018-09-15T07:23:55.255Z,15.85
2018-09-15T07:26:25.743Z,15.96
2018-09-15T07:28:56.455Z,16.04
2018-09-15T07:31:27.829Z,16.19
2018-09-15T07:33:58.199Z,16.38
2018-09-15T07:36:28.983Z,16.51
2018-09-15T07:39:00.108Z,16.68
2018-09-15T07:41:30.606Z,16.73
2018-09-15T07:44:01.176Z,16.86
2018-09-15T07:46:31.138Z,16.76
2018-09-15T07:49:01.570Z,16.99
2018-09-15T07:51:33.936Z,17.13
2018-09-15T07:54:03.984Z,16.91
2018-09-15T07:56:36.673Z,17.26
2018-09-15T07:59:19.663Z,17.36
2018-09-15T08:01:50.076Z,17.42
2018-09-15T08:04:22.600Z,17.75
2018-09-15T08:06:54.376Z,17.90
2018-09-15T08:09:30.259Z,17.87
2018-09-15T08:12:02.469Z,17.91
2018-09-15T08:14:32.825Z,18.05
2018-09-15T08:17:05.490Z,18.18
2018-09-15T08:19:36.610Z,18.18
2018-09-15T08:22:09.692Z,18.20
2018-09-15T08:24:39.632Z,18.34
2018-09-15T08:27:11.434Z,18.41
2018-09-15T08:29:46.425Z,18.59
2018-09-15T08:32:18.334Z,18.67
2018-09-15T08:34:49.748Z,18.52
2018-09-15T08:37:26.345Z,18.51
2018-09-15T08:40:04.692Z,18.68
2018-09-15T08:42:35.661Z,18.56
2018-09-15T08:45:17.788Z,18.63
2018-09-15T08:47:51.034Z,18.61
2018-09-15T08:50:25.460Z,18.34
2018-09-15T08:53:05.424Z,18.36
2018-09-15T08:55:44.693Z,18.46
2018-09-15T08:58:18.672Z,18.69
2018-09-15T09:00:53.531Z,18.75
2018-09-15T09:03:27.223Z,18.74
2018-09-15T09:06:04.550Z,18.84
2018-09-15T09:08:36.712Z,18.73
2018-09-15T09:11:10.167Z,18.70
2018-09-15T09:13:44.059Z,18.78
2018-09-15T09:16:17.030Z,18.75
2018-09-15T09:18:48.107Z,18.80
2018-09-15T09:21:28.097Z,18.81
2018-09-15T09:24:03.516Z,18.80
2018-09-15T09:26:56.359Z,19.09
2018-09-15T09:29:46.211Z,19.28
2018-09-15T09:32:28.775Z,19.08
2018-09-15T09:35:01.580Z,19.11
2018-09-15T09:37:33.658Z,19.28
2018-09-15T09:40:06.773Z,19.27
2018-09-15T09:42:47.081Z,19.28
2018-09-15T09:45:25.222Z,19.36
2018-09-15T09:48:01.249Z,19.39
2018-09-15T09:50:36.434Z,19.34
2018-09-15T09:53:08.753Z,19.50
2018-09-15T09:55:38.930Z,19.55
2018-09-15T09:58:10.056Z,19.56
2018-09-15T10:00:48.297Z,19.72
2018-09-15T10:03:22.429Z,19.68
2018-09-15T10:06:01.637Z,19.70
2018-09-15T10:08:34.212Z,19.53
2018-09-15T10:11:05.783Z,19.45
2018-09-15T10:13:41.130Z,19.67
2018-09-15T10:16:13.687Z,19.69
2018-09-15T10:18:46.671Z,19.87
2018-09-15T10:21:20.790Z,19.79
2018-09-15T10:24:03.636Z,19.89
2018-09-15T10:26:35.129Z,19.81
2018-09-15T10:29:05.333Z,20.00
2018-09-15T10:31:40.274Z,19.89
2018-09-15T10:34:13.022Z,19.89
2018-09-15T10:36:46.458Z,20.00
2018-09-15T10:39:20.438Z,20.03
2018-09-15T10:42:04.900Z,20.21
2018-09-15T10:44:36.954Z,20.36
2018-09-15T10:47:07.991Z,20.27
2018-09-15T10:49:39.497Z,20.09
2018-09-15T10:52:10.444Z,20.44
2018-09-15T10:54:41.052Z,20.52
2018-09-15T10:57:14.660Z,20.56
2018-09-15T10:59:50.147Z,20.79
2018-09-15T11:02:21.128Z,20.84
2018-09-15T11:04:53.007Z,20.93
2018-09-15T11:07:23.471Z,20.92
2018-09-15T11:09:57.062Z,20.90
2018-09-15T11:12:29.562Z,21.20
2018-09-15T11:15:02.217Z,20.94
2018-09-15T11:17:34.735Z,20.84
2018-09-15T11:20:05.966Z,20.84
2018-09-15T11:22:38.118Z,21.30
2018-09-15T11:25:14.668Z,21.23
2018-09-15T11:27:47.380Z,21.47
2018-09-15T11:30:18.320Z,21.50
2018-09-15T11:32:49.618Z,21.49
2018-09-15T11:35:20.035Z,21.21
2018-09-15T11:37:51.709Z,21.26
2018-09-15T11:40:22.460Z,21.33
2018-09-15T11:42:55.480Z,21.45
2018-09-15T11:45:27.258Z,21.62
2018-09-15T11:47:58.954Z,21.82
2018-09-15T11:50:30.978Z,22.00
2018-09-15T11:53:04.751Z,22.04
2018-09-15T11:55:35.910Z,22.06
2018-09-15T11:58:06.295Z,22.19
2018-09-15T12:00:41.395Z,22.23
2018-09-15T12:03:12.221Z,22.52
2018-09-15T12:05:43.055Z,22.61
2018-09-15T12:08:15.095Z,22.62
2018-09-15T12:10:49.087Z,22.81
2018-09-15T12:13:21.236Z,23.06
2018-09-15T12:15:52.801Z,23.21
2018-09-15T12:18:23.969Z,23.16
2018-09-15T12:20:54.898Z,23.40
2018-09-15T12:23:25.809Z,23.57
2018-09-15T12:25:57.109Z,23.99
2018-09-15T12:28:27.939Z,24.20
2018-09-15T12:30:58.660Z,24.57
2018-09-15T12:33:30.078Z,24.66
2018-09-15T12:36:00.848Z,24.75
2018-09-15T12:38:33.779Z,24.62
2018-09-15T12:41:04.271Z,24.77
2018-09-15T12:43:34.718Z,25.07
2018-09-15T12:46:10.044Z,25.13
2018-09-15T12:48:47.609Z,25.25
2018-09-15T12:51:18.198Z,24.96
2018-09-15T12:53:49.927Z,24.70
2018-09-15T12:56:19.836Z,24.80
2018-09-15T12:58:51.083Z,24.61
2018-09-15T13:01:21.783Z,24.32
2018-09-15T13:03:53.147Z,24.08
2018-09-15T13:06:25.923Z,23.76
2018-09-15T13:08:57.697Z,23.66
2018-09-15T13:11:31.484Z,23.63
2018-09-15T13:14:02.148Z,23.74
2018-09-15T13:16:32.094Z,23.95
2018-09-15T13:19:03.281Z,23.87
2018-09-15T13:21:36.816Z,23.46
2018-09-15T13:24:07.034Z,23.26
2018-09-15T13:26:38.671Z,23.01
2018-09-15T13:29:13.761Z,22.88
2018-09-15T13:31:45.033Z,22.65
2018-09-15T13:34:25.035Z,22.73
2018-09-15T13:36:58.297Z,22.85
2018-09-15T13:39:30.356Z,22.97
2018-09-15T13:42:00.887Z,22.77
2018-09-15T13:44:33.139Z,22.74
2018-09-15T13:47:05.002Z,22.53
2018-09-15T13:49:40.939Z,22.57
2018-09-15T13:52:13.533Z,22.53
2018-09-15T13:54:45.067Z,22.79
2018-09-15T13:57:16.289Z,22.89
2018-09-15T13:59:47.414Z,22.83
2018-09-15T14:02:17.889Z,23.01
2018-09-15T14:04:48.088Z,22.67
2018-09-15T14:07:18.885Z,22.49
2018-09-15T14:09:49.356Z,22.53
2018-09-15T14:12:21.178Z,22.35
2018-09-15T14:14:52.309Z,22.41
2018-09-15T14:17:22.141Z,22.25
2018-09-15T14:19:52.575Z,22.28
2018-09-15T14:22:22.697Z,22.48
2018-09-15T14:24:53.299Z,22.13
2018-09-15T14:27:23.249Z,21.98
2018-09-15T14:29:54.105Z,22.11
2018-09-15T14:32:25.110Z,22.17
2018-09-15T14:34:54.951Z,22.21
2018-09-15T14:37:25.518Z,22.18
2018-09-15T14:40:01.751Z,22.29
2018-09-15T14:42:32.162Z,22.47
2018-09-15T14:45:03.362Z,22.21
2018-09-15T14:47:33.184Z,22.06
2018-09-15T14:50:10.504Z,21.97
2018-09-15T14:52:40.729Z,22.23
2018-09-15T14:55:12.963Z,22.36
2018-09-15T14:57:43.143Z,22.16
2018-09-15T15:00:15.616Z,22.19
2018-09-15T15:02:51.098Z,22.17
2018-09-15T15:05:21.642Z,22.09
2018-09-15T15:07:52.620Z,22.17
2018-09-15T15:10:22.684Z,22.47
2018-09-15T15:12:53.170Z,22.52
2018-09-15T15:15:24.132Z,22.78
2018-09-15T15:17:55.114Z,22.64
2018-09-15T15:20:26.362Z,22.48
2018-09-15T15:22:56.262Z,22.57
2018-09-15T15:25:26.230Z,22.47
2018-09-15T15:27:56.779Z,22.56
2018-09-15T15:30:27.673Z,22.59
2018-09-15T15:32:58.305Z,22.51
2018-09-15T15:35:31.354Z,22.33
2018-09-15T15:38:03.039Z,22.22
2018-09-15T15:40:33.858Z,22.29
2018-09-15T15:43:04.252Z,22.20
2018-09-15T15:45:34.254Z,22.07
2018-09-15T15:48:04.213Z,22.14
2018-09-15T15:50:34.870Z,22.02
2018-09-15T15:53:09.322Z,21.93
2018-09-15T15:55:40.526Z,21.94
2018-09-15T15:58:12.680Z,21.80
2018-09-15T16:00:45.402Z,21.78
2018-09-15T16:03:16.697Z,21.69
2018-09-15T16:05:50.087Z,21.71
2018-09-15T16:08:20.273Z,21.62
2018-09-15T16:10:50.403Z,21.51
2018-09-15T16:13:21.592Z,21.47
2018-09-15T16:15:52.811Z,21.46
2018-09-15T16:18:22.748Z,21.34
2018-09-15T16:20:54.700Z,21.35
2018-09-15T16:23:24.778Z,21.33
2018-09-15T16:25:55.609Z,21.24
2018-09-15T16:28:26.128Z,21.01
2018-09-15T16:30:58.121Z,21.01
2018-09-15T16:33:28.534Z,20.94
2018-09-15T16:35:58.936Z,20.77
2018-09-15T16:38:30.581Z,20.78
2018-09-15T16:41:01.585Z,20.79
2018-09-15T16:43:31.788Z,20.70
2018-09-15T16:46:02.118Z,20.71
2018-09-15T16:48:33.696Z,20.68
2018-09-15T16:51:03.746Z,20.58
2018-09-15T16:53:36.522Z,20.43
2018-09-15T16:56:10.056Z,20.45
2018-09-15T16:58:41.148Z,20.49
2018-09-15T17:04:52.037Z,20.62
2018-09-15T17:07:27.599Z,20.59
2018-09-15T17:10:06.006Z,20.44
2018-09-15T17:12:37.140Z,20.50
2018-09-15T17:15:14.963Z,20.23
2018-09-15T17:17:52.805Z,20.12
2018-09-15T17:20:43.292Z,19.93
2018-09-15T17:23:20.553Z,19.91
2018-09-15T17:25:59.126Z,19.90
2018-09-15T17:28:32.367Z,19.82
2018-09-15T17:31:04.543Z,19.63
2018-09-15T17:33:41.116Z,19.54
2018-09-15T17:36:13.346Z,19.51
2018-09-15T17:38:45.625Z,19.43
2018-09-15T17:41:16.083Z,19.48
2018-09-15T17:43:48.262Z,19.39
2018-09-15T17:46:19.498Z,19.38
2018-09-15T17:48:49.253Z,19.34
2018-09-15T17:51:19.093Z,19.29
2018-09-15T17:53:49.073Z,19.25
2018-09-15T17:56:20.037Z,19.11
2018-09-15T17:58:50.145Z,19.02
2018-09-15T18:01:21.686Z,18.97
2018-09-15T18:03:51.438Z,18.89
2018-09-15T18:06:21.774Z,18.80
2018-09-15T18:08:51.913Z,18.73
2018-09-15T18:11:24.512Z,18.61
2018-09-15T18:13:57.358Z,18.50
2018-09-15T18:16:28.719Z,18.42
2018-09-15T18:18:58.923Z,18.35
2018-09-15T18:25:01.113Z,18.14
2018-09-15T18:27:32.859Z,18.06
2018-09-15T18:30:03.259Z,17.95
2018-09-15T18:32:35.119Z,17.93
2018-09-15T18:35:07.129Z,17.89
2018-09-15T18:37:36.924Z,17.81
2018-09-15T18:40:07.188Z,17.72
2018-09-15T18:42:42.232Z,17.68
2018-09-15T18:45:17.330Z,17.57
2018-09-15T18:47:47.954Z,17.52
2018-09-15T18:50:19.557Z,17.45
2018-09-15T18:52:52.353Z,17.39
2018-09-15T18:55:24.878Z,17.39
2018-09-15T18:57:55.582Z,17.33
2018-09-15T19:00:27.889Z,17.28
2018-09-15T19:02:59.639Z,17.26
2018-09-15T19:05:32.091Z,17.26
2018-09-15T19:08:06.819Z,17.19
2018-09-15T19:10:37.237Z,17.07
2018-09-15T19:13:09.245Z,17.00
2018-09-15T19:15:42.484Z,16.96
2018-09-15T19:18:15.389Z,16.93
2018-09-15T19:20:46.645Z,16.91
2018-09-15T19:23:19.930Z,16.91
2018-09-15T19:25:52.244Z,16.93
2018-09-15T19:28:28.091Z,16.91
2018-09-15T19:31:00.584Z,16.85
2018-09-15T19:33:33.452Z,16.79
2018-09-15T19:36:07.820Z,16.83
2018-09-15T19:38:39.656Z,16.74
2018-09-15T19:41:12.601Z,16.74
2018-09-15T19:43:50.988Z,16.73
2018-09-15T19:46:24.962Z,16.64
2018-09-15T19:48:56.133Z,16.51
2018-09-15T19:51:27.543Z,16.50
2018-09-15T19:54:02.942Z,16.51
2018-09-15T19:56:34.447Z,16.43
2018-09-15T19:59:06.623Z,16.51
2018-09-15T20:01:41.477Z,16.33
2018-09-15T20:04:14.246Z,16.36
2018-09-15T20:06:55.835Z,16.33
2018-09-15T20:09:31.969Z,16.32
2018-09-15T20:12:04.790Z,16.24
2018-09-15T20:14:38.042Z,16.31
2018-09-15T20:17:08.177Z,16.17
2018-09-15T20:19:38.027Z,16.20
2018-09-15T20:22:12.631Z,16.14
2018-09-15T20:24:45.619Z,16.13
2018-09-15T20:27:17.572Z,16.12
2018-09-15T20:29:52.162Z,16.15
2018-09-15T20:32:27.533Z,16.18
2018-09-15T20:35:00.205Z,16.21
2018-09-15T20:37:32.676Z,16.14
2018-09-15T20:40:03.843Z,16.11
2018-09-15T20:42:35.061Z,16.11
2018-09-15T20:45:09.466Z,16.11
2018-09-15T20:47:41.449Z,16.02
2018-09-15T20:50:13.757Z,16.08
2018-09-15T20:52:45.398Z,16.07
2018-09-15T20:55:15.385Z,15.99
2018-09-15T20:57:45.627Z,15.93
2018-09-15T21:00:15.564Z,15.80
2018-09-15T21:02:45.452Z,15.69
2018-09-15T21:05:16.201Z,15.64
2018-09-15T21:07:46.602Z,15.70
2018-09-15T21:10:17.544Z,15.73
2018-09-15T21:12:47.712Z,15.75
2018-09-15T21:15:17.751Z,15.67
2018-09-15T21:17:48.341Z,15.64
2018-09-15T21:20:18.425Z,15.64
2018-09-15T21:22:48.389Z,15.67
2018-09-15T21:25:19.725Z,15.68
2018-09-15T21:27:49.621Z,15.71
2018-09-15T21:30:19.609Z,15.62
2018-09-15T21:32:50.191Z,15.55
2018-09-15T21:35:20.098Z,15.58
2018-09-15T21:37:50.581Z,15.63
2018-09-15T21:40:21.101Z,15.52
2018-09-15T21:42:51.918Z,15.43
2018-09-15T21:45:22.286Z,15.33
2018-09-15T21:47:52.713Z,15.34
2018-09-15T21:50:24.464Z,15.38
2018-09-15T21:52:56.129Z,15.45
2018-09-15T21:55:27.197Z,15.45
2018-09-15T21:57:57.132Z,15.48
2018-09-15T22:00:27.233Z,15.24
2018-09-15T22:02:58.099Z,15.48
2018-09-15T22:05:29.402Z,15.43
2018-09-15T22:07:59.332Z,15.46
2018-09-15T22:10:30.378Z,15.45
2018-09-15T22:13:02.066Z,15.27
2018-09-15T22:17:38.747Z,15.42
2018-09-15T22:20:08.868Z,15.34
2018-09-15T22:22:39.783Z,15.32
2018-09-15T22:25:10.902Z,15.15
2018-09-15T22:27:41.175Z,14.97
2018-09-15T22:30:12.034Z,14.99
2018-09-15T22:32:43.559Z,15.01
2018-09-15T22:35:14.388Z,15.01
2018-09-15T22:37:44.684Z,14.97
2018-09-15T22:40:14.948Z,15.00
2018-09-15T22:42:47.958Z,14.96
2018-09-15T22:45:18.224Z,14.95
2018-09-15T22:47:48.545Z,14.86
2018-09-15T22:50:19.855Z,14.79
2018-09-15T22:52:50.406Z,14.82
2018-09-15T22:55:20.401Z,14.79
2018-09-15T22:57:52.429Z,14.82
2018-09-15T23:00:24.760Z,14.80
2018-09-15T23:02:55.158Z,14.81
2018-09-15T23:05:25.825Z,14.89
2018-09-15T23:07:57.054Z,14.86
2018-09-15T23:10:27.647Z,14.81
2018-09-15T23:12:59.186Z,14.81
2018-09-15T23:15:29.005Z,14.82
2018-09-15T23:18:01.160Z,14.81
2018-09-15T23:20:31.077Z,14.82
2018-09-15T23:23:02.157Z,14.85
2018-09-15T23:25:32.753Z,14.84
2018-09-15T23:28:04.863Z,14.85
2018-09-15T23:30:35.509Z,14.90
2018-09-15T23:33:07.733Z,14.90
2018-09-15T23:35:39.443Z,14.88
2018-09-15T23:38:10.394Z,14.74
2018-09-15T23:40:40.868Z,14.73
2018-09-15T23:43:14.059Z,14.83
2018-09-15T23:45:44.040Z,14.76
2018-09-15T23:48:14.326Z,14.79
2018-09-15T23:50:44.943Z,14.68
2018-09-15T23:53:16.252Z,14.56
2018-09-15T23:55:48.807Z,14.36
2018-09-15T23:58:19.123Z,14.34
